createdAt,value
2017-07-29T00:00:29.298Z,61.10
2017-07-29T00:02:56.839Z,61.20
2017-07-29T00:05:25.103Z,61.10
2017-07-29T00:07:52.603Z,61.00
2017-07-29T00:10:20.130Z,61.20
2017-07-29T00:12:47.639Z,61.40
2017-07-29T00:15:15.162Z,61.40
2017-07-29T00:17:42.943Z,61.60
2017-07-29T00:20:10.474Z,61.60
2017-07-29T00:22:38.749Z,61.70
2017-07-29T00:25:06.262Z,61.50
2017-07-29T00:27:33.777Z,61.50
2017-07-29T00:30:01.311Z,61.60
2017-07-29T00:32:28.838Z,61.70
2017-07-29T00:34:56.354Z,61.70
2017-07-29T00:37:24.638Z,61.60
2017-07-29T00:39:52.133Z,61.60
2017-07-29T00:42:19.654Z,61.70
2017-07-29T00:44:47.157Z,61.60
2017-07-29T00:47:14.693Z,61.60
2017-07-29T00:49:42.194Z,61.90
2017-07-29T00:52:09.694Z,62.10
2017-07-29T00:54:37.206Z,62.10
2017-07-29T00:57:04.706Z,62.20
2017-07-29T00:59:32.219Z,62.20
2017-07-29T01:01:59.743Z,62.30
2017-07-29T01:04:27.282Z,62.30
2017-07-29T01:06:54.790Z,62.50
2017-07-29T01:09:22.302Z,62.40
2017-07-29T01:11:49.806Z,62.20
2017-07-29T01:14:17.308Z,62.20
2017-07-29T01:16:45.590Z,62.30
2017-07-29T01:19:13.114Z,62.20
2017-07-29T01:21:40.621Z,62.30
2017-07-29T01:24:08.112Z,62.00
2017-07-29T01:26:35.634Z,62.30
2017-07-29T01:29:03.366Z,62.20
2017-07-29T01:31:30.902Z,62.20
2017-07-29T01:33:58.402Z,62.30
2017-07-29T01:36:26.678Z,62.20
2017-07-29T01:38:54.971Z,62.30
2017-07-29T01:41:22.470Z,62.20
2017-07-29T01:43:49.994Z,62.20
2017-07-29T01:46:17.497Z,62.30
2017-07-29T01:48:45.010Z,62.20
2017-07-29T01:51:12.514Z,62.20
2017-07-29T01:53:40.050Z,62.10
2017-07-29T01:56:07.553Z,62.20
2017-07-29T01:58:35.823Z,62.10
2017-07-29T02:01:03.346Z,62.10
2017-07-29T02:03:30.846Z,62.20
2017-07-29T02:05:59.134Z,61.90
2017-07-29T02:08:27.401Z,62.00
2017-07-29T02:10:55.683Z,61.50
2017-07-29T02:13:23.181Z,62.10
2017-07-29T02:15:50.703Z,62.00
2017-07-29T02:18:18.970Z,61.90
2017-07-29T02:20:47.250Z,62.00
2017-07-29T02:23:14.762Z,61.90
2017-07-29T02:25:42.264Z,61.90
2017-07-29T02:28:10.550Z,62.60
2017-07-29T02:30:38.819Z,62.30
2017-07-29T02:33:06.341Z,62.20
2017-07-29T02:35:33.851Z,62.30
2017-07-29T02:38:02.215Z,62.20
2017-07-29T02:40:30.485Z,63.20
2017-07-29T02:42:57.978Z,62.30
2017-07-29T02:45:25.532Z,62.30
2017-07-29T02:47:53.037Z,62.20
2017-07-29T02:50:20.565Z,62.30
2017-07-29T02:52:48.081Z,62.40
2017-07-29T02:55:15.659Z,62.40
2017-07-29T02:57:43.169Z,62.40
2017-07-29T03:00:10.703Z,62.30
2017-07-29T03:02:38.212Z,62.40
2017-07-29T03:05:05.711Z,62.20
2017-07-29T03:07:33.231Z,62.40
2017-07-29T03:10:00.741Z,62.40
2017-07-29T03:12:28.255Z,62.30
2017-07-29T03:14:55.753Z,62.20
2017-07-29T03:17:23.284Z,62.30
2017-07-29T03:19:51.553Z,62.10
2017-07-29T03:22:19.077Z,62.10
2017-07-29T03:24:46.593Z,62.20
2017-07-29T03:27:14.101Z,62.20
2017-07-29T03:29:41.630Z,62.10
2017-07-29T03:32:09.133Z,62.10
2017-07-29T03:34:36.688Z,62.00
2017-07-29T03:37:04.199Z,62.00
2017-07-29T03:39:31.719Z,62.00
2017-07-29T03:41:59.226Z,62.10
2017-07-29T03:44:26.757Z,62.00
2017-07-29T03:46:55.036Z,62.30
2017-07-29T03:49:22.545Z,62.20
2017-07-29T03:51:50.148Z,62.30
2017-07-29T03:54:18.424Z,62.00
2017-07-29T03:56:46.716Z,62.10
2017-07-29T03:59:14.982Z,62.10
2017-07-29T04:01:43.271Z,62.10
2017-07-29T04:04:10.790Z,62.10
2017-07-29T04:06:38.320Z,62.10
2017-07-29T04:09:06.002Z,62.10
2017-07-29T04:11:33.537Z,62.20
2017-07-29T04:14:01.054Z,62.30
2017-07-29T04:16:29.319Z,62.40
2017-07-29T04:18:56.841Z,62.30
2017-07-29T04:21:24.353Z,62.40
2017-07-29T04:23:52.649Z,62.60
2017-07-29T04:26:20.154Z,62.50
2017-07-29T04:28:47.693Z,62.60
2017-07-29T04:31:15.278Z,62.70
2017-07-29T04:33:42.774Z,62.70
2017-07-29T04:36:11.113Z,62.90
2017-07-29T04:38:38.625Z,62.80
2017-07-29T04:41:06.142Z,62.80
2017-07-29T04:43:33.641Z,62.80
2017-07-29T04:46:01.162Z,62.80
2017-07-29T04:48:29.453Z,63.40
2017-07-29T04:50:57.750Z,62.90
2017-07-29T04:53:25.246Z,62.80
2017-07-29T04:55:52.750Z,63.00
2017-07-29T04:58:21.117Z,63.70
2017-07-29T05:00:48.626Z,63.20
2017-07-29T05:03:16.133Z,63.50
2017-07-29T05:05:43.630Z,64.10
2017-07-29T05:08:11.152Z,65.10
2017-07-29T05:10:38.650Z,65.70
2017-07-29T05:13:06.154Z,66.20
2017-07-29T05:15:33.674Z,66.70
2017-07-29T05:18:01.165Z,66.70
2017-07-29T05:20:28.681Z,66.80
2017-07-29T05:22:56.180Z,67.00
2017-07-29T05:25:23.717Z,67.10
2017-07-29T05:27:51.211Z,67.40
2017-07-29T05:30:18.718Z,67.30
2017-07-29T05:32:46.231Z,66.50
2017-07-29T05:35:13.735Z,66.00
2017-07-29T05:37:41.247Z,65.80
2017-07-29T05:40:08.754Z,65.30
2017-07-29T05:42:36.286Z,64.80
2017-07-29T05:45:04.566Z,64.70
2017-07-29T05:47:32.843Z,63.60
2017-07-29T05:50:01.133Z,63.70
2017-07-29T05:52:28.638Z,63.50
2017-07-29T05:54:56.162Z,64.00
2017-07-29T05:57:23.674Z,63.20
2017-07-29T05:59:51.230Z,63.20
2017-07-29T06:02:18.737Z,63.30
2017-07-29T06:04:46.402Z,62.10
2017-07-29T06:07:13.924Z,62.00
2017-07-29T06:09:41.508Z,62.70
2017-07-29T06:12:09.793Z,62.50
2017-07-29T06:14:37.290Z,62.40
2017-07-29T06:17:04.803Z,61.70
2017-07-29T06:19:32.330Z,61.90
2017-07-29T06:21:59.904Z,61.30
2017-07-29T06:24:28.176Z,61.20
2017-07-29T06:26:55.750Z,60.80
2017-07-29T06:29:29.146Z,60.70
2017-07-29T06:31:56.653Z,60.90
2017-07-29T06:34:24.167Z,59.70
2017-07-29T06:36:51.690Z,60.30
2017-07-29T06:39:19.226Z,59.30
2017-07-29T06:41:46.793Z,58.50
2017-07-29T06:44:14.636Z,59.20
2017-07-29T06:46:42.160Z,58.00
2017-07-29T06:49:09.701Z,56.40
2017-07-29T06:51:37.247Z,57.20
2017-07-29T06:54:04.769Z,56.40
2017-07-29T06:56:32.332Z,56.00
2017-07-29T06:58:59.841Z,56.30
2017-07-29T07:01:27.365Z,56.00
2017-07-29T07:03:54.878Z,55.30
2017-07-29T07:06:22.467Z,55.10
2017-07-29T07:08:49.988Z,54.40
2017-07-29T07:11:17.495Z,54.30
2017-07-29T07:13:45.014Z,54.20
2017-07-29T07:16:12.540Z,53.40
2017-07-29T07:18:40.067Z,53.70
2017-07-29T07:21:07.592Z,53.80
2017-07-29T07:23:35.133Z,52.30
2017-07-29T07:26:02.646Z,50.80
2017-07-29T07:28:30.210Z,51.60
2017-07-29T07:30:59.699Z,52.70
2017-07-29T07:33:27.214Z,52.10
2017-07-29T07:35:54.738Z,51.50
2017-07-29T07:38:22.265Z,51.70
2017-07-29T07:40:50.589Z,51.10
2017-07-29T07:43:18.118Z,51.00
2017-07-29T07:45:45.646Z,50.00
2017-07-29T07:48:13.168Z,50.50
2017-07-29T07:50:40.726Z,48.80
2017-07-29T07:53:08.227Z,49.60
2017-07-29T07:55:35.758Z,48.30
2017-07-29T07:58:03.308Z,50.20
2017-07-29T08:00:30.822Z,48.60
2017-07-29T08:02:59.126Z,49.30
2017-07-29T08:05:26.630Z,49.20
2017-07-29T08:07:54.265Z,49.70
2017-07-29T08:10:21.767Z,49.60
2017-07-29T08:12:49.308Z,47.80
2017-07-29T08:15:16.824Z,46.80
2017-07-29T08:17:44.360Z,46.90
2017-07-29T08:20:11.882Z,47.10
2017-07-29T08:22:39.411Z,46.80
2017-07-29T08:25:06.926Z,47.30
2017-07-29T08:27:34.707Z,47.20
2017-07-29T08:30:02.273Z,46.50
2017-07-29T08:32:29.810Z,47.80
2017-07-29T08:34:57.364Z,48.10
2017-07-29T08:37:24.870Z,47.00
2017-07-29T08:39:52.397Z,47.10
2017-07-29T08:42:19.926Z,46.80
2017-07-29T08:44:47.482Z,47.30
2017-07-29T08:47:15.015Z,45.90
2017-07-29T08:49:42.526Z,44.10
2017-07-29T08:52:10.082Z,43.20
2017-07-29T08:54:37.621Z,45.00
2017-07-29T08:57:05.142Z,43.20
2017-07-29T08:59:32.668Z,44.30
2017-07-29T09:02:00.178Z,45.00
2017-07-29T09:04:27.711Z,43.90
2017-07-29T09:06:55.227Z,45.60
2017-07-29T09:09:22.748Z,44.30
2017-07-29T09:11:50.261Z,42.90
2017-07-29T09:14:17.818Z,42.90
2017-07-29T09:16:45.331Z,43.30
2017-07-29T09:19:12.837Z,44.30
2017-07-29T09:21:40.354Z,43.30
2017-07-29T09:24:07.873Z,43.40
2017-07-29T09:26:35.430Z,44.60
2017-07-29T09:29:02.941Z,43.80
2017-07-29T09:31:30.458Z,45.60
2017-07-29T09:33:57.967Z,44.60
2017-07-29T09:36:25.462Z,44.80
2017-07-29T09:38:53.021Z,44.10
2017-07-29T09:41:20.542Z,43.90
2017-07-29T09:43:48.059Z,44.80
2017-07-29T09:46:15.566Z,45.30
2017-07-29T09:48:43.120Z,45.40
2017-07-29T09:51:10.629Z,45.60
2017-07-29T09:53:38.174Z,45.80
2017-07-29T09:56:05.841Z,44.80
2017-07-29T09:58:33.338Z,44.80
2017-07-29T10:01:00.861Z,45.00
2017-07-29T10:03:29.138Z,43.80
2017-07-29T10:05:57.131Z,43.80
2017-07-29T10:08:24.634Z,43.90
2017-07-29T10:10:52.722Z,43.90
2017-07-29T10:13:20.215Z,43.60
2017-07-29T10:15:47.724Z,43.90
2017-07-29T10:18:15.262Z,44.60
2017-07-29T10:20:43.250Z,45.10
2017-07-29T10:23:10.782Z,44.50
2017-07-29T10:25:38.324Z,43.60
2017-07-29T10:28:05.835Z,43.40
2017-07-29T10:30:33.341Z,44.00
2017-07-29T10:33:00.877Z,43.90
2017-07-29T10:35:29.155Z,44.00
2017-07-29T10:37:57.434Z,44.50
2017-07-29T10:40:25.711Z,43.70
2017-07-29T10:42:53.241Z,43.70
2017-07-29T10:45:20.754Z,44.10
2017-07-29T10:47:49.199Z,43.20
2017-07-29T10:50:17.570Z,44.00
2017-07-29T10:52:45.522Z,44.20
2017-07-29T10:55:13.039Z,43.50
2017-07-29T10:57:40.534Z,43.80
2017-07-29T11:00:08.074Z,44.10
2017-07-29T11:02:35.594Z,44.00
2017-07-29T11:05:03.871Z,42.80
2017-07-29T11:07:31.385Z,42.70
2017-07-29T11:09:58.878Z,42.90
2017-07-29T11:12:26.580Z,44.00
2017-07-29T11:14:54.069Z,43.60
2017-07-29T11:17:21.905Z,43.20
2017-07-29T11:19:49.399Z,44.30
2017-07-29T11:22:16.919Z,44.20
2017-07-29T11:24:44.434Z,43.20
2017-07-29T11:27:11.938Z,43.90
2017-07-29T11:29:39.451Z,43.90
2017-07-29T11:32:06.954Z,43.50
2017-07-29T11:34:34.474Z,44.10
2017-07-29T11:37:02.746Z,44.20
2017-07-29T11:39:30.271Z,44.30
2017-07-29T11:41:57.766Z,43.70
2017-07-29T11:44:25.317Z,42.20
2017-07-29T11:46:52.834Z,41.10
2017-07-29T11:49:20.330Z,41.30
2017-07-29T11:51:47.846Z,42.00
2017-07-29T11:54:15.354Z,41.70
2017-07-29T11:56:42.866Z,43.30
2017-07-29T11:59:10.367Z,42.50
2017-07-29T12:01:37.881Z,43.30
2017-07-29T12:04:05.383Z,43.20
2017-07-29T12:06:32.901Z,42.30
2017-07-29T12:09:00.398Z,41.60
2017-07-29T12:11:27.898Z,41.90
2017-07-29T12:13:55.405Z,42.70
2017-07-29T12:16:22.910Z,40.10
2017-07-29T12:18:51.195Z,41.00
2017-07-29T12:21:18.701Z,41.00
2017-07-29T12:23:46.214Z,39.10
2017-07-29T12:26:14.155Z,39.60
2017-07-29T12:28:41.686Z,39.00
2017-07-29T12:31:09.653Z,39.60
2017-07-29T12:33:43.783Z,40.70
2017-07-29T12:36:11.439Z,39.40
2017-07-29T12:38:38.962Z,38.50
2017-07-29T12:41:06.493Z,40.40
2017-07-29T12:43:34.015Z,38.90
2017-07-29T12:46:01.562Z,39.30
2017-07-29T12:48:29.070Z,40.90
2017-07-29T12:50:56.813Z,40.20
2017-07-29T12:53:24.328Z,38.50
2017-07-29T12:55:52.652Z,39.80
2017-07-29T12:58:20.150Z,39.80
2017-07-29T13:00:47.654Z,39.20
2017-07-29T13:03:15.200Z,40.00
2017-07-29T13:05:42.719Z,40.00
2017-07-29T13:08:10.230Z,39.80
2017-07-29T13:10:37.775Z,40.30
2017-07-29T13:13:06.057Z,39.40
2017-07-29T13:15:34.326Z,41.20
2017-07-29T13:18:02.610Z,38.80
2017-07-29T13:20:30.131Z,38.70
2017-07-29T13:22:57.654Z,40.20
2017-07-29T13:25:25.174Z,39.60
2017-07-29T13:27:53.446Z,39.30
2017-07-29T13:30:21.735Z,41.20
2017-07-29T13:32:49.253Z,41.20
2017-07-29T13:35:16.773Z,40.50
2017-07-29T13:37:44.275Z,39.70
2017-07-29T13:40:11.798Z,39.80
2017-07-29T13:42:39.298Z,39.60
2017-07-29T13:45:06.860Z,39.80
2017-07-29T13:47:34.365Z,41.10
2017-07-29T13:50:01.903Z,41.80
2017-07-29T13:52:30.205Z,39.80
2017-07-29T13:54:57.723Z,39.80
2017-07-29T13:57:25.238Z,40.40
2017-07-29T13:59:52.739Z,41.60
2017-07-29T14:02:21.099Z,41.60
2017-07-29T14:04:48.604Z,41.90
2017-07-29T14:07:16.919Z,40.50
2017-07-29T14:09:44.424Z,40.50
2017-07-29T14:12:12.702Z,40.80
2017-07-29T14:14:40.214Z,40.40
2017-07-29T14:17:07.714Z,40.10
2017-07-29T14:19:35.230Z,40.60
2017-07-29T14:22:02.753Z,40.60
2017-07-29T14:24:30.275Z,40.40
2017-07-29T14:26:57.782Z,40.70
2017-07-29T14:29:25.317Z,41.20
2017-07-29T14:31:53.586Z,41.00
2017-07-29T14:34:21.086Z,41.00
2017-07-29T14:36:48.617Z,41.60
2017-07-29T14:39:16.906Z,41.50
2017-07-29T14:41:44.431Z,41.50
2017-07-29T14:44:11.951Z,42.10
2017-07-29T14:46:39.490Z,41.80
2017-07-29T14:49:07.018Z,41.50
2017-07-29T14:51:34.570Z,40.20
2017-07-29T14:54:02.086Z,41.20
2017-07-29T14:56:29.616Z,41.60
2017-07-29T14:58:57.129Z,41.70
2017-07-29T15:01:24.642Z,41.80
2017-07-29T15:03:52.197Z,42.30
2017-07-29T15:06:19.702Z,42.40
2017-07-29T15:08:47.218Z,42.30
2017-07-29T15:11:14.718Z,42.60
2017-07-29T15:13:42.242Z,42.80
2017-07-29T15:16:09.738Z,43.10
2017-07-29T15:18:37.250Z,43.40
2017-07-29T15:21:04.770Z,42.30
2017-07-29T15:23:32.298Z,42.70
2017-07-29T15:25:59.809Z,43.40
2017-07-29T15:28:28.079Z,43.70
2017-07-29T15:30:55.596Z,43.70
2017-07-29T15:33:23.113Z,43.30
2017-07-29T15:35:51.707Z,43.60
2017-07-29T15:38:19.244Z,43.50
2017-07-29T15:40:46.741Z,44.10
2017-07-29T15:43:14.290Z,44.50
2017-07-29T15:45:42.034Z,44.50
2017-07-29T15:48:10.358Z,40.80
2017-07-29T15:50:37.875Z,40.80
2017-07-29T15:53:05.391Z,41.70
2017-07-29T15:55:32.898Z,42.90
2017-07-29T15:58:01.207Z,43.00
2017-07-29T16:00:28.720Z,42.90
2017-07-29T16:02:56.235Z,43.90
2017-07-29T16:05:23.987Z,44.40
2017-07-29T16:07:51.488Z,44.60
2017-07-29T16:10:19.013Z,44.30
2017-07-29T16:12:46.510Z,44.40
2017-07-29T16:15:14.052Z,44.60
2017-07-29T16:17:41.986Z,43.90
2017-07-29T16:20:11.614Z,42.80
2017-07-29T16:22:39.127Z,42.90
2017-07-29T16:25:06.652Z,42.80
2017-07-29T16:27:34.170Z,42.80
2017-07-29T16:30:01.835Z,42.70
2017-07-29T16:32:29.363Z,41.60
2017-07-29T16:34:57.650Z,41.00
2017-07-29T16:37:25.175Z,40.90
2017-07-29T16:39:52.686Z,40.90
2017-07-29T16:42:20.231Z,39.50
2017-07-29T16:44:47.747Z,38.70
2017-07-29T16:47:15.277Z,39.30
2017-07-29T16:49:42.797Z,40.20
2017-07-29T16:52:11.074Z,40.60
2017-07-29T16:54:38.611Z,40.50
2017-07-29T16:57:06.130Z,39.00
2017-07-29T16:59:33.674Z,39.20
2017-07-29T17:02:01.174Z,39.80
2017-07-29T17:04:28.692Z,40.20
2017-07-29T17:06:56.215Z,40.00
2017-07-29T17:09:23.714Z,38.90
2017-07-29T17:11:51.248Z,39.30
2017-07-29T17:14:19.531Z,37.90
2017-07-29T17:16:47.083Z,37.90
2017-07-29T17:19:15.355Z,38.40
2017-07-29T17:21:43.640Z,38.80
2017-07-29T17:24:11.180Z,38.80
2017-07-29T17:26:38.731Z,39.00
2017-07-29T17:29:06.423Z,39.40
2017-07-29T17:31:33.995Z,39.00
2017-07-29T17:34:01.614Z,38.90
2017-07-29T17:36:29.153Z,39.50
2017-07-29T17:38:56.667Z,40.10
2017-07-29T17:41:24.190Z,39.80
2017-07-29T17:43:51.831Z,40.20
2017-07-29T17:46:19.384Z,40.60
2017-07-29T17:48:47.003Z,40.90
2017-07-29T17:51:14.576Z,41.00
2017-07-29T17:53:42.091Z,41.30
2017-07-29T17:56:09.676Z,41.90
2017-07-29T17:58:37.244Z,42.50
2017-07-29T18:01:04.910Z,43.30
2017-07-29T18:03:32.444Z,43.60
2017-07-29T18:05:59.996Z,43.90
2017-07-29T18:08:27.647Z,43.90
2017-07-29T18:10:55.312Z,44.40
2017-07-29T18:13:23.014Z,44.50
2017-07-29T18:15:50.534Z,44.60
2017-07-29T18:18:18.052Z,45.00
2017-07-29T18:20:45.738Z,45.20
2017-07-29T18:23:13.278Z,45.40
2017-07-29T18:25:40.822Z,45.90
2017-07-29T18:28:08.355Z,46.20
2017-07-29T18:30:35.882Z,46.10
2017-07-29T18:33:03.407Z,46.30
2017-07-29T18:35:30.931Z,46.40
2017-07-29T18:37:58.478Z,46.70
2017-07-29T18:40:25.973Z,46.80
2017-07-29T18:42:54.259Z,47.70
2017-07-29T18:45:22.526Z,48.00
2017-07-29T18:47:50.088Z,48.00
2017-07-29T18:50:17.630Z,48.40
2017-07-29T18:52:45.163Z,48.50
2017-07-29T18:55:12.696Z,48.90
2017-07-29T18:57:40.198Z,49.40
2017-07-29T19:00:07.724Z,49.80
2017-07-29T19:02:35.241Z,50.00
2017-07-29T19:05:03.552Z,50.60
2017-07-29T19:07:31.070Z,50.60
2017-07-29T19:09:58.598Z,50.60
2017-07-29T19:12:26.114Z,50.80
2017-07-29T19:14:53.661Z,51.20
2017-07-29T19:17:21.202Z,51.50
2017-07-29T19:19:48.712Z,51.70
2017-07-29T19:22:16.242Z,51.90
2017-07-29T19:24:44.589Z,52.10
2017-07-29T19:27:12.170Z,52.00
2017-07-29T19:29:39.746Z,52.40
2017-07-29T19:32:07.338Z,52.30
2017-07-29T19:34:34.834Z,52.40
2017-07-29T19:37:03.141Z,52.50
2017-07-29T19:39:30.650Z,52.60
2017-07-29T19:41:58.157Z,52.70
2017-07-29T19:44:25.735Z,52.80
2017-07-29T19:46:53.271Z,52.90
2017-07-29T19:49:20.827Z,53.10
2017-07-29T19:51:48.333Z,53.20
2017-07-29T19:54:15.867Z,53.50
2017-07-29T19:56:43.377Z,53.20
2017-07-29T19:59:10.897Z,53.30
2017-07-29T20:01:38.418Z,53.50
2017-07-29T20:04:06.694Z,54.20
2017-07-29T20:06:34.237Z,54.10
2017-07-29T20:09:01.747Z,54.00
2017-07-29T20:11:29.259Z,54.20
2017-07-29T20:13:57.522Z,54.90
2017-07-29T20:16:25.033Z,54.40
2017-07-29T20:18:52.545Z,54.50
2017-07-29T20:21:20.211Z,54.50
2017-07-29T20:23:47.741Z,54.60
2017-07-29T20:26:15.254Z,54.60
2017-07-29T20:28:42.793Z,54.60
2017-07-29T20:31:10.371Z,54.90
2017-07-29T20:33:37.886Z,54.80
2017-07-29T20:36:05.382Z,55.00
2017-07-29T20:38:32.901Z,54.70
2017-07-29T20:41:00.394Z,55.10
2017-07-29T20:43:28.674Z,55.50
2017-07-29T20:45:56.177Z,55.50
2017-07-29T20:48:23.702Z,55.60
2017-07-29T20:50:51.960Z,55.90
2017-07-29T20:53:19.465Z,55.90
2017-07-29T20:55:46.960Z,55.80
2017-07-29T20:58:14.481Z,55.60
2017-07-29T21:00:41.977Z,55.70
2017-07-29T21:03:09.497Z,55.90
2017-07-29T21:05:36.993Z,56.00
2017-07-29T21:08:04.520Z,56.20
2017-07-29T21:10:32.026Z,56.20
2017-07-29T21:12:59.557Z,56.60
2017-07-29T21:15:27.062Z,56.80
2017-07-29T21:17:55.370Z,57.00
2017-07-29T21:20:22.883Z,57.00
2017-07-29T21:22:50.377Z,57.20
2017-07-29T21:25:17.894Z,57.20
2017-07-29T21:27:45.408Z,57.20
2017-07-29T21:30:13.033Z,57.10
2017-07-29T21:32:40.522Z,57.30
2017-07-29T21:35:08.134Z,57.30
2017-07-29T21:37:35.639Z,57.50
2017-07-29T21:40:03.162Z,57.40
2017-07-29T21:42:30.658Z,57.50
2017-07-29T21:44:58.173Z,57.40
2017-07-29T21:47:25.684Z,57.40
2017-07-29T21:49:53.211Z,57.60
2017-07-29T21:52:21.491Z,57.80
2017-07-29T21:54:49.781Z,57.90
2017-07-29T21:57:17.301Z,57.80
2017-07-29T21:59:44.819Z,58.10
2017-07-29T22:02:12.327Z,58.20
2017-07-29T22:04:39.833Z,58.00
2017-07-29T22:07:07.397Z,57.80
2017-07-29T22:09:34.962Z,58.20
2017-07-29T22:12:02.463Z,58.30
2017-07-29T22:14:29.989Z,58.40
2017-07-29T22:16:57.505Z,58.40
2017-07-29T22:19:25.774Z,58.50
2017-07-29T22:21:53.329Z,58.40
2017-07-29T22:24:20.844Z,58.50
2017-07-29T22:26:48.368Z,58.60
2017-07-29T22:29:15.891Z,58.70
2017-07-29T22:31:43.415Z,58.60
2017-07-29T22:34:10.912Z,58.70
2017-07-29T22:36:38.430Z,58.80
2017-07-29T22:39:05.989Z,59.00
2017-07-29T22:41:33.519Z,59.00
2017-07-29T22:44:01.020Z,59.00
2017-07-29T22:46:28.531Z,59.10
2017-07-29T22:48:56.801Z,59.20
2017-07-29T22:51:25.084Z,59.20
2017-07-29T22:53:52.586Z,59.20
2017-07-29T22:56:20.107Z,59.20
2017-07-29T22:58:47.603Z,59.20
2017-07-29T23:01:15.125Z,59.40
2017-07-29T23:03:42.641Z,59.60
2017-07-29T23:06:10.165Z,59.60
2017-07-29T23:08:37.679Z,59.60
2017-07-29T23:11:05.970Z,60.10
2017-07-29T23:13:34.250Z,59.60
2017-07-29T23:16:02.536Z,59.70
2017-07-29T23:18:30.062Z,59.70
2017-07-29T23:20:57.615Z,59.90
2017-07-29T23:23:25.146Z,60.00
2017-07-29T23:25:52.646Z,60.10
2017-07-29T23:28:20.953Z,60.60
2017-07-29T23:30:48.467Z,60.40
2017-07-29T23:33:15.990Z,60.20
2017-07-29T23:35:43.497Z,60.30
2017-07-29T23:38:11.015Z,60.20
2017-07-29T23:40:38.518Z,59.80
2017-07-29T23:43:06.803Z,60.10
2017-07-29T23:45:35.135Z,60.30
2017-07-29T23:48:02.646Z,60.10
2017-07-29T23:50:30.137Z,60.30
2017-07-29T23:52:57.657Z,60.20
2017-07-29T23:55:25.934Z,60.30
2017-07-29T23:57:53.462Z,60.10
